Time;durP1;ratioP1;P1;durP2;ratioP2;P2;SDS_P1;SDS_P2;PMS_P1;PMS_P2;Temp;Humidity;BMP_temperature;BMP_pressure;BME280_temperature;BME280_humidity;BME280_pressure;Samples;Min_cycle;Max_cycle;Signal;HPM_P1;HPM_P2
2023/02/01 00:00:15;;;;;;;;;;;;;;;-144.99;84.79;52552.03;5065780;28;19925;-73
2023/02/01 00:02:42;;;;;;;;;;;;;;;-144.99;85.85;52558.16;5066039;28;19929;-74
2023/02/01 00:05:09;;;;;;;;;;;;;;;-144.99;85.96;52541.84;5066995;28;19983;-74
2023/02/01 00:07:36;;;;;;;;;;;;;;;-144.99;86.06;52566.31;5067392;28;19934;-71
2023/02/01 00:10:03;;;;;;;;;;;;;;;-144.99;86.81;52562.25;5065160;28;20038;-74
2023/02/01 00:12:30;;;;;;;;;;;;;;;-144.99;86.35;52545.94;5065993;28;20023;-74
2023/02/01 00:14:57;;;;;;;;;;;;;;;-144.99;86.09;52558.16;5066059;28;20019;-73
2023/02/01 00:17:24;;;;;;;;;;;;;;;-144.99;85.84;52547.97;5065427;28;20370;-73
2023/02/01 00:19:50;;;;;;;;;;;;;;;-144.99;85.83;52541.84;5065311;28;19971;-72
2023/02/01 00:22:17;;;;;;;;;;;;;;;-144.99;85.12;52566.31;5079543;28;19929;-72
2023/02/01 00:24:43;;;;;;;;;;;;;;;-144.99;84.74;52574.47;5082257;28;20291;-70
2023/02/01 00:27:10;;;;;;;;;;;;;;;-144.99;83.50;52545.94;5071491;28;20432;-74
2023/02/01 00:29:36;;;;;;;;;;;;;;;-144.99;83.55;52539.81;5062860;28;20015;-75
2023/02/01 00:32:04;;;;;;;;;;;;;;;-144.99;83.20;52562.25;5063565;28;20011;-73
2023/02/01 00:34:31;;;;;;;;;;;;;;;-144.99;82.82;52545.94;5067310;28;19986;-72
2023/02/01 00:36:57;;;;;;;;;;;;;;;-144.99;82.24;52505.16;5067366;28;19956;-74
2023/02/01 00:39:24;;;;;;;;;;;;;;;-144.99;82.05;52537.78;5066488;28;19928;-75
2023/02/01 00:41:50;;;;;;;;;;;;;;;-144.99;83.30;52525.56;5065333;28;19963;-74
2023/02/01 00:44:17;;;;;;;;;;;;;;;-144.99;83.17;52529.63;5065316;28;19929;-73
2023/02/01 00:46:43;;;;;;;;;;;;;;;-144.99;82.62;52554.09;5066757;28;19968;-75
2023/02/01 00:49:11;;;;;;;;;;;;;;;-144.99;83.24;52562.25;5061830;28;20379;-76
2023/02/01 00:51:38;;;;;;;;;;;;;;;-144.99;83.43;52566.31;5064100;28;19928;-78
2023/02/01 00:54:04;;;;;;;;;;;;;;;-144.99;83.29;52594.84;5066070;28;19960;-76
2023/02/01 00:56:31;;;;;;;;;;;;;;;-144.99;83.70;52586.69;5066119;28;20003;-75
2023/02/01 00:58:57;;;;;;;;;;;;;;;-144.99;83.61;52517.41;5085781;28;19982;-77
2023/02/01 01:01:24;;;;;;;;;;;;;;;-144.99;84.03;52550.00;5072206;28;19964;-76
2023/02/01 01:03:52;;;;;;;;;;;;;;;-144.99;83.36;52570.38;5066730;28;19998;-76
2023/02/01 01:06:21;;;;;;;;;;;;;;;-144.99;83.58;52558.16;5067515;28;19964;-77
2023/02/01 01:08:47;;;;;;;;;;;;;;;-144.99;83.06;52537.78;5067112;28;19924;-76
2023/02/01 01:11:15;;;;;;;;;;;;;;;-144.99;82.43;52562.25;5065653;28;20019;-75
2023/02/01 01:13:41;;;;;;;;;;;;;;;-144.99;82.37;52521.47;5070937;28;20454;-76
2023/02/01 01:16:08;;;;;;;;;;;;;;;-144.99;82.24;52562.25;5065972;28;20006;-74
2023/02/01 01:18:35;;;;;;;;;;;;;;;-144.99;83.15;52580.59;5059720;28;19976;-75
2023/02/01 01:21:02;;;;;;;;;;;;;;;-144.99;81.90;52574.47;5067480;28;20215;-75
2023/02/01 01:23:30;;;;;;;;;;;;;;;-144.99;81.90;52545.94;5068095;28;19960;-73
2023/02/01 01:25:56;;;;;;;;;;;;;;;-144.99;82.63;52550.00;5066308;28;20398;-74
2023/02/01 01:28:23;;;;;;;;;;;;;;;-144.99;81.70;52574.47;5066122;28;19933;-72
2023/02/01 01:30:49;;;;;;;;;;;;;;;-144.99;81.48;52529.63;5059768;28;19979;-75
2023/02/01 01:33:16;;;;;;;;;;;;;;;-144.99;81.52;52545.94;5070793;28;19963;-74
2023/02/01 01:35:42;;;;;;;;;;;;;;;-144.99;81.20;52552.03;5073754;28;20322;-74
2023/02/01 01:38:10;;;;;;;;;;;;;;;-144.99;81.29;52566.31;5066535;28;20357;-74
2023/02/01 01:40:38;;;;;;;;;;;;;;;-144.99;80.70;52598.94;5066367;28;20344;-74
2023/02/01 01:43:06;;;;;;;;;;;;;;;-144.99;80.57;52570.38;5065630;28;20525;-75
2023/02/01 01:45:34;;;;;;;;;;;;;;;-144.99;79.88;52558.16;5066294;28;19936;-74
2023/02/01 01:48:02;;;;;;;;;;;;;;;-144.99;80.45;52582.63;5069840;28;19964;-73
2023/02/01 01:50:30;;;;;;;;;;;;;;;-144.99;80.92;52590.78;5066954;28;19928;-77
2023/02/01 01:52:59;;;;;;;;;;;;;;;-144.99;80.91;52566.31;5069703;28;19986;-75
2023/02/01 01:55:26;;;;;;;;;;;;;;;-144.99;80.89;52545.94;5069933;28;20005;-73
2023/02/01 01:57:56;;;;;;;;;;;;;;;-144.99;80.52;52566.31;5069229;28;20360;-73
2023/02/01 02:00:23;;;;;;;;;;;;;;;-144.99;81.25;52533.69;5059944;28;20425;-73
2023/02/01 02:02:53;;;;;;;;;;;;;;;-144.99;81.35;52537.78;5065857;28;19928;-72
2023/02/01 02:05:20;;;;;;;;;;;;;;;-144.99;82.58;52582.63;5067505;28;19987;-76
2023/02/01 02:07:48;;;;;;;;;;;;;;;-144.99;82.28;52582.63;5067620;28;19971;-74
2023/02/01 02:10:16;;;;;;;;;;;;;;;-144.99;82.30;52545.94;5070970;28;19976;-74
2023/02/01 02:12:43;;;;;;;;;;;;;;;-144.99;84.68;52545.94;5064138;28;20019;-76
2023/02/01 02:15:13;;;;;;;;;;;;;;;-144.99;84.95;52590.78;5068047;28;19928;-72
2023/02/01 02:17:45;;;;;;;;;;;;;;;-144.99;84.59;52574.47;5068921;28;19936;-74
2023/02/01 02:20:30;;;;;;;;;;;;;;;-144.99;84.99;52533.69;5067108;28;19936;-73
2023/02/01 02:23:11;;;;;;;;;;;;;;;-144.99;87.00;52552.03;5067032;28;20051;-74
2023/02/01 02:25:59;;;;;;;;;;;;;;;-144.99;87.51;52543.91;5063081;28;19929;-76
2023/02/01 02:28:50;;;;;;;;;;;;;;;-144.99;88.58;52550.00;5068243;28;19975;-73
2023/02/01 02:31:34;;;;;;;;;;;;;;;-144.99;87.89;52566.31;5065634;28;19975;-73
2023/02/01 02:34:07;;;;;;;;;;;;;;;-144.99;87.45;52541.84;5067776;28;19928;-73
2023/02/01 02:36:38;;;;;;;;;;;;;;;-144.99;88.53;52533.69;5068942;28;19964;-71
2023/02/01 02:39:08;;;;;;;;;;;;;;;-144.99;90.46;52562.25;5065344;28;20407;-73
2023/02/01 02:47:27;;;;;;;;;;;;;;;-144.99;93.68;52554.09;5062446;28;20248;-72
2023/02/01 02:55:29;;;;;;;;;;;;;;;-144.99;95.81;52513.31;5054187;28;20034;-75
2023/02/01 03:06:15;;;;;;;;;;;;;;;-144.99;97.79;52568.34;5100438;28;19932;-76
2023/02/01 03:08:45;;;;;;;;;;;;;;;-144.99;97.17;52529.63;5103371;28;20309;-75
2023/02/01 03:11:12;;;;;;;;;;;;;;;-144.99;98.47;52558.16;5100267;28;20042;-74
2023/02/01 03:13:41;;;;;;;;;;;;;;;-144.99;97.87;52562.25;5091611;28;19948;-75
2023/02/01 03:16:13;;;;;;;;;;;;;;;-144.99;98.09;52560.19;5093277;28;20030;-75
2023/02/01 03:18:43;;;;;;;;;;;;;;;-144.99;99.91;52576.50;5100780;28;19999;-78
2023/02/01 03:21:12;;;;;;;;;;;;;;;-144.99;100.00;52539.81;5104751;28;19939;-74
2023/02/01 03:23:40;;;;;;;;;;;;;;;-144.99;100.00;52570.38;5101345;28;19954;-74
2023/02/01 03:26:08;;;;;;;;;;;;;;;-144.99;99.62;52545.94;5094629;28;19924;-75
2023/02/01 03:28:35;;;;;;;;;;;;;;;-144.99;99.19;52556.13;5096072;28;20379;-74
2023/02/01 03:31:03;;;;;;;;;;;;;;;-144.99;98.13;52564.28;5102416;28;19931;-75
2023/02/01 03:33:30;;;;;;;;;;;;;;;-144.99;98.49;52566.31;5091515;28;20019;-74
2023/02/01 03:36:00;;;;;;;;;;;;;;;-144.99;98.07;52554.09;5084194;28;19975;-75
2023/02/01 03:38:29;;;;;;;;;;;;;;;-144.99;98.19;52560.19;5078915;28;19971;-75
2023/02/01 03:41:02;;;;;;;;;;;;;;;-144.99;98.47;52541.84;5076550;28;20014;-75
2023/02/01 03:43:30;;;;;;;;;;;;;;;-144.99;97.06;52631.53;5082443;28;19966;-74
2023/02/01 03:46:00;;;;;;;;;;;;;;;-144.99;97.66;52594.84;5076966;28;19963;-76
2023/02/01 03:48:28;;;;;;;;;;;;;;;-144.99;97.88;52607.09;5072756;28;19971;-76
2023/02/01 03:50:57;;;;;;;;;;;;;;;-144.99;97.60;52550.00;5078523;28;20051;-73
2023/02/01 03:53:25;;;;;;;;;;;;;;;-144.99;96.53;52537.78;5075953;28;20103;-73
2023/02/01 03:55:52;;;;;;;;;;;;;;;-144.99;98.12;52566.31;5072178;28;20008;-74
2023/02/01 03:58:21;;;;;;;;;;;;;;;-144.99;97.90;52594.84;5078808;28;19974;-75
2023/02/01 04:00:51;;;;;;;;;;;;;;;-144.99;97.90;52537.78;5080023;28;20399;-73
2023/02/01 04:03:17;;;;;;;;;;;;;;;-144.99;97.16;52550.00;5082895;28;20442;-73
2023/02/01 04:05:44;;;;;;;;;;;;;;;-144.99;96.59;52570.38;5076721;28;20011;-73
2023/02/01 04:08:10;;;;;;;;;;;;;;;-144.99;95.52;52545.94;5079251;28;20064;-72
2023/02/01 04:10:37;;;;;;;;;;;;;;;-144.99;95.52;52545.94;5078115;28;20356;-74
2023/02/01 04:13:03;;;;;;;;;;;;;;;-144.99;93.85;52574.47;5084557;28;20019;-72
2023/02/01 04:15:31;;;;;;;;;;;;;;;-144.99;96.51;52521.47;5083082;28;20015;-74
2023/02/01 04:17:57;;;;;;;;;;;;;;;-144.99;97.24;52578.53;5078072;28;19971;-72
2023/02/01 04:20:24;;;;;;;;;;;;;;;-144.99;98.46;52517.41;5083357;28;19967;-74
2023/02/01 04:22:50;;;;;;;;;;;;;;;-144.99;98.16;52537.78;5078953;28;20016;-76
2023/02/01 04:25:18;;;;;;;;;;;;;;;-144.99;100.00;52541.84;5082088;28;20291;-73
2023/02/01 04:27:44;;;;;;;;;;;;;;;-144.99;99.99;52578.53;5074930;28;19924;-74
2023/02/01 04:30:13;;;;;;;;;;;;;;;-144.99;100.00;52550.00;5082584;28;20008;-74
2023/02/01 04:32:41;;;;;;;;;;;;;;;-144.99;100.00;52541.84;5085426;28;19924;-73
2023/02/01 04:35:08;;;;;;;;;;;;;;;-144.99;100.00;52570.38;5086913;28;19955;-74
2023/02/01 04:37:34;;;;;;;;;;;;;;;-144.99;100.00;52570.38;5080682;28;19970;-74
2023/02/01 04:40:03;;;;;;;;;;;;;;;-144.99;100.00;52586.69;5078005;28;19971;-74
2023/02/01 04:42:29;;;;;;;;;;;;;;;-144.99;100.00;52570.38;5083029;28;19927;-73
2023/02/01 04:44:56;;;;;;;;;;;;;;;-144.99;100.00;52564.28;5081682;28;19963;-74
2023/02/01 04:47:22;;;;;;;;;;;;;;;-144.99;100.00;52568.34;5087755;28;19982;-74
2023/02/01 04:49:50;;;;;;;;;;;;;;;-144.99;100.00;52550.00;5076064;28;19982;-76
2023/02/01 04:52:17;;;;;;;;;;;;;;;-144.99;100.00;52568.34;5077963;28;20011;-75
2023/02/01 04:54:43;;;;;;;;;;;;;;;-144.99;100.00;52562.25;5082380;28;20006;-74
2023/02/01 04:57:11;;;;;;;;;;;;;;;-144.99;100.00;52582.63;5079095;28;20011;-73
2023/02/01 04:59:37;;;;;;;;;;;;;;;-144.99;100.00;52564.28;5078669;28;19928;-75
2023/02/01 05:02:03;;;;;;;;;;;;;;;-144.99;100.00;52586.69;5083086;28;19963;-75
2023/02/01 05:04:30;;;;;;;;;;;;;;;-144.99;98.76;52550.00;5079404;28;19970;-75
2023/02/01 05:06:58;;;;;;;;;;;;;;;-144.99;98.18;52586.69;5088007;28;19959;-75
2023/02/01 05:09:24;;;;;;;;;;;;;;;-144.99;98.04;52562.25;5075363;28;19925;-75
2023/02/01 05:14:34;;;;;;;;;;;;;;;-144.99;99.16;52552.03;5092946;28;20068;-76
2023/02/01 05:17:01;;;;;;;;;;;;;;;-144.99;97.54;52562.25;5085787;28;19925;-73
2023/02/01 05:19:27;;;;;;;;;;;;;;;-144.99;96.20;52570.38;5081862;28;19964;-75
2023/02/01 05:21:54;;;;;;;;;;;;;;;-144.99;96.10;52578.53;5087263;28;20363;-73
2023/02/01 05:24:22;;;;;;;;;;;;;;;-144.99;97.19;52594.84;5075148;28;20378;-75
2023/02/01 05:26:48;;;;;;;;;;;;;;;-144.99;97.82;52582.63;5079428;28;20011;-76
2023/02/01 05:29:15;;;;;;;;;;;;;;;-144.99;98.04;52537.78;5078108;28;20010;-73
2023/02/01 05:31:41;;;;;;;;;;;;;;;-144.99;97.90;52574.47;5082258;28;19975;-73
2023/02/01 05:34:09;;;;;;;;;;;;;;;-144.99;98.15;52566.31;5079146;28;20335;-75
2023/02/01 05:36:35;;;;;;;;;;;;;;;-144.99;98.13;52541.84;5075661;28;20033;-74
2023/02/01 05:39:02;;;;;;;;;;;;;;;-144.99;98.56;52562.25;5081913;28;20018;-73
2023/02/01 05:41:29;;;;;;;;;;;;;;;-144.99;98.98;52550.00;5082340;28;20589;-72
2023/02/01 05:43:56;;;;;;;;;;;;;;;-144.99;98.01;52533.69;5078158;28;20001;-73
2023/02/01 05:46:22;;;;;;;;;;;;;;;-144.99;98.42;52554.09;5079858;28;20283;-74
2023/02/01 05:48:49;;;;;;;;;;;;;;;-144.99;98.68;52621.34;5085678;28;19979;-75
2023/02/01 05:51:15;;;;;;;;;;;;;;;-144.99;97.93;52574.47;5077866;28;20011;-75
2023/02/01 05:53:42;;;;;;;;;;;;;;;-144.99;99.96;52586.69;5082411;28;20035;-74
2023/02/01 05:56:08;;;;;;;;;;;;;;;-144.99;98.98;52570.38;5075626;28;19971;-73
2023/02/01 05:58:36;;;;;;;;;;;;;;;-144.99;98.52;52600.97;5080171;28;20027;-75
2023/02/01 06:01:03;;;;;;;;;;;;;;;-144.99;100.00;52545.94;5075499;28;20015;-75
2023/02/01 06:03:30;;;;;;;;;;;;;;;-144.99;98.75;52574.47;5085541;28;19964;-75
2023/02/01 06:05:56;;;;;;;;;;;;;;;-144.99;99.57;52590.78;5088670;28;19925;-76
2023/02/01 06:08:25;;;;;;;;;;;;;;;-144.99;100.00;52562.25;5083166;28;20383;-77
2023/02/01 06:10:51;;;;;;;;;;;;;;;-144.99;99.44;52566.31;5082169;28;19924;-75
2023/02/01 06:13:20;;;;;;;;;;;;;;;-144.99;99.54;52603.00;5079635;28;20019;-74
2023/02/01 06:15:57;;;;;;;;;;;;;;;-144.99;100.00;52562.25;4661183;28;10000711;-75
2023/02/01 06:18:23;;;;;;;;;;;;;;;-144.99;99.05;52562.25;5070814;28;20450;-75
2023/02/01 06:20:52;;;;;;;;;;;;;;;-144.99;99.96;52574.47;5077900;28;20023;-75
2023/02/01 06:23:19;;;;;;;;;;;;;;;-144.99;99.55;52562.25;5074058;28;20007;-75
2023/02/01 06:25:46;;;;;;;;;;;;;;;-144.99;99.22;52582.63;5073095;28;20129;-74
2023/02/01 06:28:12;;;;;;;;;;;;;;;-144.99;100.00;52584.66;5080820;28;20101;-76
2023/02/01 06:30:40;;;;;;;;;;;;;;;-144.99;100.00;52576.50;5080980;28;19960;-76
2023/02/01 06:33:08;;;;;;;;;;;;;;;-144.99;100.00;52586.69;5075907;28;20168;-73
2023/02/01 06:35:35;;;;;;;;;;;;;;;-144.99;100.00;52586.69;5076251;28;19963;-73
2023/02/01 06:38:01;;;;;;;;;;;;;;;-144.99;100.00;52562.25;5071356;28;20036;-75
2023/02/01 06:40:28;;;;;;;;;;;;;;;-144.99;100.00;52574.47;5080620;28;20412;-74
2023/02/01 06:42:54;;;;;;;;;;;;;;;-144.99;99.87;52590.78;5083296;28;19940;-73
2023/02/01 06:45:20;;;;;;;;;;;;;;;-144.99;100.00;52576.50;5070682;28;20002;-76
2023/02/01 06:47:47;;;;;;;;;;;;;;;-144.99;100.00;52566.31;5083686;28;19967;-76
2023/02/01 06:50:15;;;;;;;;;;;;;;;-144.99;100.00;52586.69;5085211;28;20026;-74
2023/02/01 06:52:42;;;;;;;;;;;;;;;-144.99;99.38;52566.31;5075645;28;20054;-73
2023/02/01 06:55:08;;;;;;;;;;;;;;;-144.99;99.55;52558.16;5079657;28;20068;-71
2023/02/01 06:57:35;;;;;;;;;;;;;;;-144.99;100.00;52607.09;5079839;28;20647;-73
2023/02/01 07:00:02;;;;;;;;;;;;;;;-144.99;100.00;52552.03;5080527;28;19948;-74
2023/02/01 07:02:29;;;;;;;;;;;;;;;-144.99;100.00;52574.47;5074668;28;19931;-73
2023/02/01 07:04:55;;;;;;;;;;;;;;;-144.99;100.00;52554.09;5080496;28;20010;-74
2023/02/01 07:07:23;;;;;;;;;;;;;;;-144.99;100.00;52560.19;5082972;28;19986;-74
2023/02/01 07:09:50;;;;;;;;;;;;;;;-144.99;99.52;52578.53;5085198;28;20467;-74
2023/02/01 07:12:16;;;;;;;;;;;;;;;-144.99;99.67;52574.47;5081540;28;20046;-73
2023/02/01 07:14:43;;;;;;;;;;;;;;;-144.99;99.15;52558.16;5072867;28;20412;-72
2023/02/01 07:17:09;;;;;;;;;;;;;;;-144.99;99.22;52560.19;5081086;28;20053;-73
2023/02/01 07:19:36;;;;;;;;;;;;;;;-144.99;97.32;52550.00;5080875;28;20010;-73
2023/02/01 07:22:02;;;;;;;;;;;;;;;-144.99;96.92;52594.84;5079920;28;19994;-73
2023/02/01 07:24:31;;;;;;;;;;;;;;;-144.99;95.58;52541.84;5082450;28;20004;-73
2023/02/01 07:26:57;;;;;;;;;;;;;;;-144.99;94.32;52521.47;5082914;28;20395;-74
2023/02/01 07:29:24;;;;;;;;;;;;;;;-144.99;93.71;52564.28;5081194;28;19974;-74
2023/02/01 07:31:50;;;;;;;;;;;;;;;-144.99;96.43;52562.25;5076180;28;20027;-74
2023/02/01 07:34:17;;;;;;;;;;;;;;;-144.99;96.70;52533.69;5088066;28;19960;-72
2023/02/01 07:36:43;;;;;;;;;;;;;;;-144.99;96.16;52484.78;5080304;28;19975;-74
2023/02/01 07:39:10;;;;;;;;;;;;;;;-144.99;95.16;52570.38;5085793;28;20038;-73
2023/02/01 07:41:37;;;;;;;;;;;;;;;-144.99;94.72;52558.16;5084872;28;20658;-72
2023/02/01 07:44:04;;;;;;;;;;;;;;;-144.99;94.87;52537.78;5082862;28;20050;-72
2023/02/01 07:46:30;;;;;;;;;;;;;;;-144.99;95.17;52550.00;5082623;28;20029;-72
2023/02/01 07:48:57;;;;;;;;;;;;;;;-144.99;94.59;52517.41;5075729;28;20035;-73
2023/02/01 07:51:23;;;;;;;;;;;;;;;-144.99;94.19;52550.00;5082223;28;19938;-72
2023/02/01 07:53:50;;;;;;;;;;;;;;;-144.99;94.32;52550.00;5072927;28;20057;-74
2023/02/01 07:56:17;;;;;;;;;;;;;;;-144.99;94.32;52527.59;5072923;28;20039;-73
2023/02/01 07:58:47;;;;;;;;;;;;;;;-144.99;92.88;52586.69;5082796;28;19982;-74
2023/02/01 08:01:20;;;;;;;;;;;;;;;-144.99;93.80;52590.78;5081074;28;19980;-72
2023/02/01 08:03:46;;;;;;;;;;;;;;;-144.99;92.73;52545.94;5084447;28;19973;-73
2023/02/01 08:06:13;;;;;;;;;;;;;;;-144.99;92.73;52529.63;5080344;28;20035;-72
2023/02/01 08:08:39;;;;;;;;;;;;;;;-144.99;92.24;52564.28;5078440;28;20056;-72
2023/02/01 08:11:07;;;;;;;;;;;;;;;-144.99;91.41;52574.47;5081674;28;20000;-72
2023/02/01 08:13:34;;;;;;;;;;;;;;;-144.99;90.61;52501.09;5069308;28;20019;-73
2023/02/01 08:16:02;;;;;;;;;;;;;;;-144.99;90.24;52527.59;5074077;28;20673;-73
2023/02/01 08:18:29;;;;;;;;;;;;;;;-144.99;89.42;52545.94;5078204;28;19980;-72
2023/02/01 08:20:56;;;;;;;;;;;;;;;-144.99;89.07;52517.41;5077200;28;20331;-74
2023/02/01 08:23:22;;;;;;;;;;;;;;;-144.99;87.85;52533.69;5082036;28;19987;-70
2023/02/01 08:25:49;;;;;;;;;;;;;;;-144.99;86.60;52541.84;5075749;28;20031;-72
2023/02/01 08:28:16;;;;;;;;;;;;;;;-144.99;86.97;52513.31;5084142;28;19979;-72
2023/02/01 08:30:42;;;;;;;;;;;;;;;-144.99;85.47;52533.69;5077246;28;19948;-73
2023/02/01 08:33:11;;;;;;;;;;;;;;;-144.99;85.31;52541.84;5080757;28;20579;-73
2023/02/01 08:35:38;;;;;;;;;;;;;;;-144.99;84.95;52554.09;5081958;28;20367;-73
2023/02/01 08:38:05;;;;;;;;;;;;;;;-144.99;83.39;52545.94;5083297;28;19943;-73
2023/02/01 08:40:32;;;;;;;;;;;;;;;-144.99;83.17;52554.09;5081891;28;19991;-72
2023/02/01 08:43:00;;;;;;;;;;;;;;;-144.99;82.64;52541.84;5074833;28;19940;-72
2023/02/01 08:45:28;;;;;;;;;;;;;;;-144.99;83.06;52529.63;5072996;28;19973;-72
2023/02/01 08:47:55;;;;;;;;;;;;;;;-144.99;85.08;52533.69;5076884;28;19928;-75
2023/02/01 08:50:23;;;;;;;;;;;;;;;-144.99;86.67;52541.84;5073383;28;19943;-71
2023/02/01 08:52:50;;;;;;;;;;;;;;;-144.99;86.77;52533.69;5074297;28;20567;-73
2023/02/01 08:55:16;;;;;;;;;;;;;;;-144.99;87.09;52541.84;5080470;28;20079;-73
2023/02/01 08:57:43;;;;;;;;;;;;;;;-144.99;86.23;52558.16;5077749;28;20374;-73
2023/02/01 09:00:11;;;;;;;;;;;;;;;-144.99;85.86;52545.94;5073318;28;20181;-73
2023/02/01 09:02:38;;;;;;;;;;;;;;;-144.99;86.74;52566.31;5081813;28;19964;-73
2023/02/01 09:05:05;;;;;;;;;;;;;;;-144.99;87.44;52550.00;5035987;22;1894155;-78
2023/02/01 09:07:34;;;;;;;;;;;;;;;-144.99;87.82;52521.47;5065950;28;20360;-76
2023/02/01 09:10:01;;;;;;;;;;;;;;;-144.99;86.35;52521.47;5067292;28;20385;-77
2023/02/01 09:12:28;;;;;;;;;;;;;;;-144.99;85.37;52517.41;5056987;28;19942;-77
2023/02/01 09:14:54;;;;;;;;;;;;;;;-144.99;84.22;52501.09;5058718;28;20371;-79
2023/02/01 09:17:21;;;;;;;;;;;;;;;-144.99;83.82;52541.84;5051012;28;19933;-78
2023/02/01 09:19:47;;;;;;;;;;;;;;;-144.99;83.13;52533.69;5054919;28;19925;-79
2023/02/01 09:22:15;;;;;;;;;;;;;;;-144.99;82.85;52539.81;5056374;28;19932;-77
2023/02/01 09:24:43;;;;;;;;;;;;;;;-144.99;82.72;52529.63;5052715;28;19982;-80
2023/02/01 09:27:09;;;;;;;;;;;;;;;-144.99;82.51;52533.69;5053059;28;20325;-80
2023/02/01 09:29:36;;;;;;;;;;;;;;;-144.99;82.86;52533.69;5057452;28;19937;-84
2023/02/01 09:32:02;;;;;;;;;;;;;;;-144.99;82.51;52537.78;5049105;28;19939;-82
2023/02/01 09:34:29;;;;;;;;;;;;;;;-144.99;82.62;52533.69;5053018;28;20241;-80
2023/02/01 09:36:56;;;;;;;;;;;;;;;-144.99;83.40;52509.25;5049182;28;19933;-78
2023/02/01 09:39:22;;;;;;;;;;;;;;;-144.99;83.62;52556.13;5052494;28;19929;-82
2023/02/01 09:41:56;;;;;;;;;;;;;;;-144.99;83.45;52525.56;5061060;28;19960;-81
2023/02/01 09:44:32;;;;;;;;;;;;;;;-144.99;83.57;52517.41;5069083;28;19940;-79
2023/02/01 09:46:59;;;;;;;;;;;;;;;-144.99;82.85;52488.84;5049111;28;21981;-81
2023/02/01 09:49:28;;;;;;;;;;;;;;;-144.99;81.78;52517.41;5049679;28;19989;-82
2023/02/01 09:51:56;;;;;;;;;;;;;;;-144.99;80.55;52568.34;5043379;28;20032;-76
2023/02/01 09:54:24;;;;;;;;;;;;;;;-144.99;80.78;52529.63;5047838;28;19965;-78
2023/02/01 09:56:55;;;;;;;;;;;;;;;-144.99;85.17;52525.56;5044832;28;20329;-82
2023/02/01 09:59:27;;;;;;;;;;;;;;;-144.99;85.47;52517.41;5048087;28;20518;-82
2023/02/01 10:01:54;;;;;;;;;;;;;;;-144.99;85.68;52480.72;5048972;28;19932;-79
2023/02/01 10:04:20;;;;;;;;;;;;;;;-144.99;84.25;52456.25;5043724;28;19982;-80
2023/02/01 10:06:56;;;;;;;;;;;;;;;-144.99;85.16;52558.16;5047143;28;20501;-80
2023/02/01 10:09:30;;;;;;;;;;;;;;;-144.99;83.92;52562.25;5046967;28;20453;-80
2023/02/01 10:12:12;;;;;;;;;;;;;;;-144.99;84.17;52529.63;5036746;28;19935;-80
2023/02/01 10:14:49;;;;;;;;;;;;;;;-144.99;84.52;52509.25;5037539;28;19970;-80
2023/02/01 10:17:22;;;;;;;;;;;;;;;-144.99;85.25;52550.00;5041636;28;20004;-79
2023/02/01 10:19:54;;;;;;;;;;;;;;;-144.99;86.12;52545.94;5068606;28;19925;-83
2023/02/01 10:22:26;;;;;;;;;;;;;;;-144.99;86.48;52525.56;5053521;28;19956;-79
2023/02/01 10:24:57;;;;;;;;;;;;;;;-144.99;86.53;52545.94;5044594;28;19925;-79
2023/02/01 10:27:26;;;;;;;;;;;;;;;-144.99;86.35;52554.09;5046241;28;19928;-78
2023/02/01 10:29:56;;;;;;;;;;;;;;;-144.99;85.18;52533.69;5029047;28;19936;-78
2023/02/01 10:32:24;;;;;;;;;;;;;;;-144.99;85.57;52513.31;5042153;28;19979;-78
2023/02/01 10:34:53;;;;;;;;;;;;;;;-144.99;84.92;52533.69;5041182;28;20055;-81
2023/02/01 10:37:24;;;;;;;;;;;;;;;-144.99;84.39;52529.63;5042806;28;20415;-80
2023/02/01 10:39:53;;;;;;;;;;;;;;;-144.99;85.09;52574.47;5041649;28;20095;-78
2023/02/01 10:42:21;;;;;;;;;;;;;;;-144.99;85.86;52545.94;5035674;28;19936;-80
2023/02/01 10:44:48;;;;;;;;;;;;;;;-144.99;86.07;52513.31;5039692;28;19979;-79
2023/02/01 10:47:16;;;;;;;;;;;;;;;-144.99;86.41;52537.78;5042405;28;20026;-78
2023/02/01 10:49:48;;;;;;;;;;;;;;;-144.99;86.80;52523.50;5040779;28;19928;-77
2023/02/01 10:52:17;;;;;;;;;;;;;;;-144.99;86.98;52584.66;5036728;28;19956;-80
2023/02/01 10:54:44;;;;;;;;;;;;;;;-144.99;86.87;52537.78;5057595;28;19913;-84
2023/02/01 10:57:11;;;;;;;;;;;;;;;-144.99;87.46;52558.16;5055250;28;19983;-77
2023/02/01 10:59:38;;;;;;;;;;;;;;;-144.99;87.82;52529.63;5040484;28;20363;-79
2023/02/01 11:02:14;;;;;;;;;;;;;;;-144.99;88.61;52558.16;5042020;28;19929;-79
2023/02/01 11:04:42;;;;;;;;;;;;;;;-144.99;88.26;52537.78;5039970;28;19968;-82
2023/02/01 11:07:14;;;;;;;;;;;;;;;-144.99;89.09;52545.94;5042564;28;19933;-80
2023/02/01 11:09:41;;;;;;;;;;;;;;;-144.99;89.25;52541.84;5041835;28;20220;-78
2023/02/01 11:12:22;;;;;;;;;;;;;;;-144.99;89.38;52521.47;5041809;28;20016;-82
2023/02/01 11:14:48;;;;;;;;;;;;;;;-144.99;89.28;52529.63;5034743;28;20122;-78
2023/02/01 11:17:26;;;;;;;;;;;;;;;-144.99;88.50;52525.56;5042491;28;20003;-78
2023/02/01 11:20:05;;;;;;;;;;;;;;;-144.99;87.51;52529.63;5043066;28;20010;-76
2023/02/01 11:22:32;;;;;;;;;;;;;;;-144.99;86.47;52566.31;5042907;28;20020;-78
2023/02/01 11:24:59;;;;;;;;;;;;;;;-144.99;85.61;52503.13;5048072;28;19964;-79
2023/02/01 11:27:26;;;;;;;;;;;;;;;-144.99;85.40;52531.66;5054792;28;20034;-78
2023/02/01 11:29:56;;;;;;;;;;;;;;;-144.99;84.87;52539.81;5047947;28;19929;-78
2023/02/01 11:32:24;;;;;;;;;;;;;;;-144.99;83.55;52554.09;5047422;28;19925;-78
2023/02/01 11:34:53;;;;;;;;;;;;;;;-144.99;82.84;52529.63;5043492;28;19986;-79
2023/02/01 11:37:22;;;;;;;;;;;;;;;-144.99;81.14;52515.34;5045495;28;20055;-77
2023/02/01 11:39:55;;;;;;;;;;;;;;;-144.99;80.91;52537.78;5049875;28;19945;-78
2023/02/01 11:42:22;;;;;;;;;;;;;;;-144.99;79.72;52497.00;5041029;28;20315;-77
2023/02/01 11:44:48;;;;;;;;;;;;;;;-144.99;79.99;52545.94;5049252;28;20304;-79
2023/02/01 11:47:26;;;;;;;;;;;;;;;-144.99;80.38;52533.69;5049652;28;20019;-82
2023/02/01 11:49:53;;;;;;;;;;;;;;;-144.99;80.22;52568.34;5049871;28;19928;-78
2023/02/01 11:52:30;;;;;;;;;;;;;;;-144.99;80.16;52541.84;5047083;28;19933;-79
2023/02/01 11:55:05;;;;;;;;;;;;;;;-144.99;80.86;52513.31;5046654;28;19929;-78
2023/02/01 11:57:41;;;;;;;;;;;;;;;-144.99;82.42;52513.31;5052323;28;19978;-78
2023/02/01 12:00:17;;;;;;;;;;;;;;;-144.99;85.88;52550.00;5041508;28;19925;-76
2023/02/01 12:02:54;;;;;;;;;;;;;;;-144.99;91.21;52574.47;5044062;28;20474;-82
2023/02/01 12:05:26;;;;;;;;;;;;;;;-144.99;92.50;52578.53;5049148;28;20392;-77
2023/02/01 12:08:03;;;;;;;;;;;;;;;-144.99;93.05;52517.41;5060081;28;20303;-74
2023/02/01 12:10:38;;;;;;;;;;;;;;;-144.99;92.06;52519.44;5044656;28;20000;-77
2023/02/01 12:13:09;;;;;;;;;;;;;;;-144.99;90.93;52543.91;5043622;28;19956;-78
2023/02/01 12:15:47;;;;;;;;;;;;;;;-144.99;90.23;52574.47;5047410;28;19956;-78
2023/02/01 12:18:31;;;;;;;;;;;;;;;-144.99;91.43;52541.84;5047078;28;19994;-76
2023/02/01 12:21:05;;;;;;;;;;;;;;;-144.99;90.55;52533.69;5045869;28;20303;-78
2023/02/01 12:23:46;;;;;;;;;;;;;;;-144.99;90.14;52566.31;5041715;28;20401;-79
2023/02/01 12:26:26;;;;;;;;;;;;;;;-144.99;89.27;52570.38;5045258;28;20031;-76
2023/02/01 12:29:08;;;;;;;;;;;;;;;-144.99;90.23;52574.47;5048656;28;19956;-77
2023/02/01 12:31:44;;;;;;;;;;;;;;;-144.99;91.10;52590.78;5042073;28;20020;-78
2023/02/01 12:34:27;;;;;;;;;;;;;;;-144.99;91.18;52550.00;5047290;28;19979;-78
2023/02/01 12:36:57;;;;;;;;;;;;;;;-144.99;89.95;52562.25;5045381;28;20030;-77
2023/02/01 12:39:29;;;;;;;;;;;;;;;-144.99;90.05;52497.00;5049792;28;20039;-78
2023/02/01 12:42:02;;;;;;;;;;;;;;;-144.99;90.84;52527.59;5067458;28;19927;-79
2023/02/01 12:44:33;;;;;;;;;;;;;;;-144.99;90.46;52584.66;5068821;28;20095;-77
2023/02/01 12:47:04;;;;;;;;;;;;;;;-144.99;89.62;52539.81;5045269;28;20677;-77
2023/02/01 12:49:34;;;;;;;;;;;;;;;-144.99;91.51;52556.13;5048765;28;19998;-76
2023/02/01 12:52:03;;;;;;;;;;;;;;;-144.99;89.76;52545.94;5034964;28;19928;-78
2023/02/01 12:54:35;;;;;;;;;;;;;;;-144.99;90.02;52545.94;5044301;28;19929;-78